Terminal Aerodrome Forecast
Issued by NWS Twin Cities, MN

Home | Current Version | Previous Version | Text Only | Print | Product List | Glossary On
Versions: 1 2 3 4 5 6 7 8 9 10 11 12 13 14
000
FTUS43 KMPX 171722
TAFEAU
TAF
KEAU 171722Z 1718/1818 23008KT 3SM -SN BR SCT015 BKN035 OVC050
     FM171900 25008KT P6SM OVC015
     FM172100 26009KT P6SM SCT040 SCT200
     FM180000 26004KT P6SM SCT250
     FM181000 12002KT P6SM OVC100
     FM181500 12013KT P6SM OVC050
     FM181700 16015G22KT P6SM BKN050=

USA.gov is the U.S. government's official web portal to all federal, state and local government web resources and services.